createdAt,value
2022-10-29T00:01:03.855Z,21.59
2022-10-29T00:03:32.556Z,21.59
2022-10-29T00:06:01.099Z,21.59
2022-10-29T00:08:28.927Z,21.59
2022-10-29T00:10:56.386Z,21.58
2022-10-29T00:13:23.788Z,21.56
2022-10-29T00:15:51.194Z,21.58
2022-10-29T00:18:18.585Z,21.58
2022-10-29T00:20:48.378Z,21.60
2022-10-29T00:23:15.776Z,21.63
2022-10-29T00:25:43.199Z,21.66
2022-10-29T00:28:10.605Z,21.65
2022-10-29T00:30:38.021Z,21.66
2022-10-29T00:33:05.430Z,21.65
2022-10-29T00:35:32.887Z,21.66
2022-10-29T00:38:01.596Z,21.67
2022-10-29T00:40:29.013Z,21.68
2022-10-29T00:43:14.147Z,21.66
2022-10-29T00:45:41.760Z,21.66
2022-10-29T00:48:09.172Z,21.68
2022-10-29T00:50:36.576Z,21.67
2022-10-29T00:53:05.255Z,21.68
2022-10-29T00:55:32.692Z,21.71
2022-10-29T00:58:00.825Z,21.73
2022-10-29T01:00:28.244Z,21.68
2022-10-29T01:02:55.898Z,21.68
2022-10-29T01:05:24.417Z,21.70
2022-10-29T01:07:51.825Z,21.68
2022-10-29T01:10:22.072Z,21.76
2022-10-29T01:13:10.093Z,21.76
2022-10-29T01:15:42.008Z,21.77
2022-10-29T01:18:14.568Z,21.78
2022-10-29T01:21:02.923Z,21.80
2022-10-29T01:23:53.081Z,21.78
2022-10-29T01:26:47.271Z,21.79
2022-10-29T01:29:22.254Z,21.79
2022-10-29T01:31:52.421Z,21.80
2022-10-29T01:34:23.107Z,21.81
2022-10-29T01:36:53.621Z,21.81
2022-10-29T01:39:22.191Z,21.80
2022-10-29T01:41:52.123Z,21.81
2022-10-29T01:44:25.339Z,21.79
2022-10-29T01:46:55.213Z,21.76
2022-10-29T01:49:25.635Z,21.77
2022-10-29T01:51:53.037Z,21.76
2022-10-29T01:54:20.446Z,21.76
2022-10-29T01:56:54.828Z,21.75
2022-10-29T01:59:35.402Z,21.77
2022-10-29T02:02:14.523Z,21.76
2022-10-29T02:04:53.053Z,21.77
2022-10-29T02:07:23.117Z,21.78
2022-10-29T02:09:55.100Z,21.78
2022-10-29T02:12:24.022Z,21.78
2022-10-29T02:14:52.670Z,21.77
2022-10-29T02:17:21.350Z,21.77
2022-10-29T02:19:48.765Z,21.76
2022-10-29T02:22:16.178Z,21.77
2022-10-29T02:24:43.571Z,21.76
2022-10-29T02:27:11.025Z,21.76
2022-10-29T02:29:38.927Z,21.75
2022-10-29T02:32:06.777Z,21.77
2022-10-29T02:34:35.468Z,21.76
2022-10-29T02:37:02.871Z,21.77
2022-10-29T02:39:30.742Z,21.77
2022-10-29T02:41:58.139Z,21.76
2022-10-29T02:44:25.547Z,21.79
2022-10-29T02:46:52.978Z,21.83
2022-10-29T02:49:20.365Z,21.82
2022-10-29T02:51:49.091Z,21.84
2022-10-29T02:54:16.492Z,21.85
2022-10-29T02:56:43.895Z,21.83
2022-10-29T02:59:12.017Z,21.83
2022-10-29T03:01:41.597Z,21.82
2022-10-29T03:04:09.086Z,21.81
2022-10-29T03:06:37.252Z,21.81
2022-10-29T03:09:06.001Z,21.81
2022-10-29T03:11:33.447Z,21.80
2022-10-29T03:14:00.840Z,21.78
2022-10-29T03:16:28.247Z,21.77
2022-10-29T03:18:55.643Z,21.78
2022-10-29T03:21:23.041Z,21.75
2022-10-29T03:23:50.474Z,21.77
2022-10-29T03:26:19.163Z,21.76
2022-10-29T03:31:18.869Z,21.77
2022-10-29T03:33:46.293Z,21.76
2022-10-29T03:36:13.733Z,21.77
2022-10-29T03:38:41.181Z,21.76
2022-10-29T03:41:10.912Z,21.78
2022-10-29T03:43:39.820Z,21.78
2022-10-29T03:46:07.242Z,21.77
2022-10-29T03:48:34.901Z,21.76
2022-10-29T03:51:03.095Z,21.76
2022-10-29T03:53:30.527Z,21.79
2022-10-29T03:55:58.003Z,21.79
2022-10-29T03:58:25.635Z,21.80
2022-10-29T04:00:58.324Z,21.77
2022-10-29T04:03:25.841Z,21.76
2022-10-29T04:05:53.271Z,21.76
2022-10-29T04:08:21.031Z,21.78
2022-10-29T04:10:50.441Z,21.80
2022-10-29T04:13:17.935Z,21.80
2022-10-29T04:15:45.425Z,21.79
2022-10-29T04:18:14.122Z,21.77
2022-10-29T04:20:57.027Z,21.77
2022-10-29T04:29:05.682Z,21.76
2022-10-29T04:31:33.088Z,21.77
2022-10-29T04:34:01.876Z,21.76
2022-10-29T04:36:29.294Z,21.77
2022-10-29T04:38:56.746Z,21.77
2022-10-29T04:41:24.156Z,21.79
2022-10-29T04:43:51.562Z,21.80
2022-10-29T04:46:18.993Z,21.80
2022-10-29T04:48:46.448Z,21.82
2022-10-29T04:51:19.999Z,21.79
2022-10-29T04:53:47.401Z,21.78
2022-10-29T04:56:14.804Z,21.78
2022-10-29T04:58:42.219Z,21.77
2022-10-29T05:01:09.773Z,21.77
2022-10-29T05:03:37.281Z,21.77
2022-10-29T05:06:04.962Z,21.78
2022-10-29T05:08:33.662Z,21.76
2022-10-29T05:11:02.839Z,21.76
2022-10-29T05:13:30.243Z,21.73
2022-10-29T05:15:57.645Z,21.72
2022-10-29T05:18:25.051Z,21.71
2022-10-29T05:20:54.083Z,21.72
2022-10-29T05:23:21.567Z,21.70
2022-10-29T05:25:51.943Z,21.70
2022-10-29T05:28:20.476Z,21.71
2022-10-29T05:30:48.053Z,21.70
2022-10-29T05:33:16.790Z,21.70
2022-10-29T05:35:44.193Z,21.69
2022-10-29T05:38:11.669Z,21.71
2022-10-29T05:40:39.412Z,21.69
2022-10-29T05:43:08.121Z,21.71
2022-10-29T05:45:35.793Z,21.70
2022-10-29T05:48:03.807Z,21.68
2022-10-29T05:50:31.443Z,21.68
2022-10-29T05:52:59.160Z,21.69
2022-10-29T05:55:26.961Z,21.69
2022-10-29T05:57:56.610Z,21.69
2022-10-29T06:00:25.313Z,21.68
2022-10-29T06:02:52.941Z,21.68
2022-10-29T06:05:20.535Z,21.67
2022-10-29T06:07:47.952Z,21.66
2022-10-29T06:10:15.350Z,21.71
2022-10-29T06:12:42.750Z,21.71
2022-10-29T06:15:11.091Z,21.74
2022-10-29T06:17:42.532Z,21.71
2022-10-29T06:20:11.014Z,21.73
2022-10-29T06:22:38.415Z,21.70
2022-10-29T06:25:06.604Z,21.72
2022-10-29T06:27:34.006Z,21.72
2022-10-29T06:30:01.408Z,21.70
2022-10-29T06:32:28.837Z,21.72
2022-10-29T06:34:57.549Z,21.70
2022-10-29T06:37:24.957Z,21.70
2022-10-29T06:39:52.375Z,21.70
2022-10-29T06:42:19.774Z,21.71
2022-10-29T06:44:47.176Z,21.67
2022-10-29T06:47:14.581Z,21.69
2022-10-29T06:49:42.016Z,21.67
2022-10-29T06:52:10.709Z,21.68
2022-10-29T06:54:38.107Z,21.70
2022-10-29T06:57:05.513Z,21.71
2022-10-29T06:59:32.920Z,21.71
2022-10-29T07:02:00.400Z,21.75
2022-10-29T07:04:27.865Z,21.78
2022-10-29T07:06:55.295Z,21.74
2022-10-29T07:09:23.996Z,21.79
2022-10-29T07:11:51.393Z,21.81
2022-10-29T07:14:18.791Z,21.82
2022-10-29T07:16:46.259Z,21.86
2022-10-29T07:19:13.664Z,21.87
2022-10-29T07:21:43.863Z,21.86
2022-10-29T07:24:11.264Z,21.88
2022-10-29T07:26:39.944Z,21.89
2022-10-29T07:29:07.346Z,21.92
2022-10-29T07:31:34.746Z,21.99
2022-10-29T07:34:02.166Z,22.01
2022-10-29T07:36:30.787Z,21.99
2022-10-29T07:38:58.291Z,22.00
2022-10-29T07:41:25.697Z,21.94
2022-10-29T07:43:54.399Z,21.94
2022-10-29T07:46:21.803Z,21.89
2022-10-29T07:48:49.211Z,21.89
2022-10-29T07:51:16.617Z,21.89
2022-10-29T07:53:44.030Z,21.87
2022-10-29T07:58:38.644Z,21.90
2022-10-29T08:01:07.417Z,21.90
2022-10-29T08:03:35.078Z,21.95
2022-10-29T08:06:02.511Z,21.98
2022-10-29T08:08:30.858Z,21.95
2022-10-29T08:11:00.406Z,21.92
2022-10-29T08:13:27.817Z,21.90
2022-10-29T08:15:55.228Z,21.90
2022-10-29T08:18:23.925Z,21.92
2022-10-29T08:20:51.330Z,21.96
2022-10-29T08:23:18.975Z,21.95
2022-10-29T08:25:46.413Z,21.96
2022-10-29T08:28:14.519Z,21.96
2022-10-29T08:30:42.013Z,21.95
2022-10-29T08:33:10.680Z,21.98
2022-10-29T08:35:39.397Z,22.00
2022-10-29T08:38:06.832Z,22.02
2022-10-29T08:40:39.755Z,21.99
2022-10-29T08:43:31.382Z,22.04
2022-10-29T08:45:58.796Z,22.05
2022-10-29T08:48:35.223Z,22.04
2022-10-29T08:51:06.477Z,22.03
2022-10-29T08:53:35.934Z,22.01
2022-10-29T08:56:05.348Z,22.00
2022-10-29T08:58:34.922Z,21.99
2022-10-29T09:01:02.422Z,22.00
2022-10-29T09:03:30.379Z,22.00
2022-10-29T09:06:05.537Z,21.99
2022-10-29T09:08:38.660Z,22.02
2022-10-29T09:11:09.679Z,22.08
2022-10-29T09:13:45.245Z,22.06
2022-10-29T09:16:19.116Z,22.04
2022-10-29T09:18:57.698Z,22.05
2022-10-29T09:21:30.539Z,22.03
2022-10-29T09:24:12.647Z,22.02
2022-10-29T09:26:45.100Z,22.04
2022-10-29T09:29:24.378Z,22.03
2022-10-29T09:31:52.923Z,22.06
2022-10-29T09:34:26.235Z,22.08
2022-10-29T09:36:54.931Z,22.12
2022-10-29T09:39:28.061Z,22.12
2022-10-29T09:41:59.149Z,22.13
2022-10-29T09:44:29.343Z,22.16
2022-10-29T09:47:07.103Z,22.15
2022-10-29T09:49:44.514Z,22.13
2022-10-29T09:52:15.750Z,22.09
2022-10-29T09:54:43.171Z,22.12
2022-10-29T09:57:14.575Z,22.10
2022-10-29T09:59:43.262Z,22.10
2022-10-29T10:02:21.250Z,22.09
2022-10-29T10:04:49.009Z,22.09
2022-10-29T10:07:19.497Z,22.07
2022-10-29T10:09:55.422Z,22.12
2022-10-29T10:12:23.752Z,22.07
2022-10-29T10:15:02.311Z,22.07
2022-10-29T10:17:29.726Z,22.06
2022-10-29T10:19:57.141Z,22.04
2022-10-29T10:22:25.831Z,22.03
2022-10-29T10:24:53.333Z,22.03
2022-10-29T10:27:30.344Z,22.04
2022-10-29T10:30:11.396Z,22.03
2022-10-29T10:32:38.804Z,22.05
2022-10-29T10:35:26.335Z,22.09
2022-10-29T10:37:55.379Z,22.10
2022-10-29T10:40:24.594Z,22.14
2022-10-29T10:42:52.967Z,22.16
2022-10-29T10:45:24.367Z,22.21
2022-10-29T10:47:52.407Z,22.23
2022-10-29T10:50:21.187Z,22.25
2022-10-29T10:52:48.591Z,22.28
2022-10-29T10:55:22.843Z,22.30
2022-10-29T10:57:53.958Z,22.31
2022-10-29T11:00:22.889Z,22.35
2022-10-29T11:02:52.484Z,22.35
2022-10-29T11:05:20.832Z,22.34
2022-10-29T11:07:53.033Z,22.36
2022-10-29T11:10:21.874Z,22.40
2022-10-29T11:12:50.933Z,22.42
2022-10-29T11:15:20.826Z,22.43
2022-10-29T11:17:54.042Z,22.42
2022-10-29T11:20:24.003Z,22.40
2022-10-29T11:22:55.768Z,22.40
2022-10-29T11:25:27.365Z,22.40
2022-10-29T11:27:57.016Z,22.40
2022-10-29T11:30:24.452Z,22.42
2022-10-29T11:32:55.630Z,22.36
2022-10-29T11:35:25.019Z,22.34
2022-10-29T11:37:56.401Z,22.32
2022-10-29T11:40:30.821Z,22.31
2022-10-29T11:43:07.001Z,22.30
2022-10-29T11:45:39.721Z,22.33
2022-10-29T11:48:20.532Z,22.34
2022-10-29T11:50:55.317Z,22.38
2022-10-29T11:53:30.000Z,22.38
2022-10-29T11:56:03.223Z,22.40
2022-10-29T11:58:38.068Z,22.37
2022-10-29T12:01:20.936Z,22.38
2022-10-29T12:04:02.284Z,22.40
2022-10-29T12:06:33.556Z,22.41
2022-10-29T12:09:06.527Z,22.43
2022-10-29T12:11:42.907Z,22.43
2022-10-29T12:14:18.584Z,22.40
2022-10-29T12:16:50.237Z,22.40
2022-10-29T12:19:25.628Z,22.39
2022-10-29T12:21:55.071Z,22.40
2022-10-29T12:24:38.181Z,22.40
2022-10-29T12:27:10.176Z,22.42
2022-10-29T12:29:44.170Z,22.43
2022-10-29T12:32:14.278Z,22.44
2022-10-29T12:34:42.881Z,22.44
2022-10-29T12:37:12.264Z,22.45
2022-10-29T12:39:41.568Z,22.45
2022-10-29T12:42:13.877Z,22.45
2022-10-29T12:44:45.183Z,22.47
2022-10-29T12:47:14.944Z,22.47
2022-10-29T12:49:48.496Z,22.48
2022-10-29T12:52:24.952Z,22.48
2022-10-29T12:54:52.359Z,22.50
2022-10-29T12:57:29.216Z,22.47
2022-10-29T12:59:56.842Z,22.46
2022-10-29T13:02:30.038Z,22.46
2022-10-29T13:05:16.884Z,22.47
2022-10-29T13:08:18.956Z,22.47
2022-10-29T13:10:51.492Z,22.48
2022-10-29T13:13:33.740Z,22.48
2022-10-29T13:16:02.159Z,22.45
2022-10-29T13:18:31.053Z,22.44
2022-10-29T13:20:58.908Z,22.44
2022-10-29T13:23:34.851Z,22.43
2022-10-29T13:26:02.596Z,22.39
2022-10-29T13:28:48.689Z,22.38
2022-10-29T13:31:45.190Z,22.38
2022-10-29T13:34:12.610Z,22.39
2022-10-29T13:36:40.007Z,22.38
2022-10-29T13:39:18.865Z,22.38
2022-10-29T13:41:50.321Z,22.36
2022-10-29T13:44:21.118Z,22.34
2022-10-29T13:46:48.722Z,22.34
2022-10-29T13:49:21.108Z,22.33
2022-10-29T13:51:56.606Z,22.32
2022-10-29T13:54:40.280Z,22.28
2022-10-29T13:57:11.011Z,22.28
2022-10-29T13:59:42.500Z,22.28
2022-10-29T14:02:36.643Z,22.27
2022-10-29T14:05:07.248Z,22.29
2022-10-29T14:07:36.301Z,22.27
2022-10-29T14:10:06.992Z,22.27
2022-10-29T14:12:34.825Z,22.26
2022-10-29T14:15:06.743Z,22.24
2022-10-29T14:17:34.215Z,22.24
2022-10-29T14:20:01.645Z,22.24
2022-10-29T14:22:35.193Z,22.24
2022-10-29T14:25:02.941Z,22.22
2022-10-29T14:27:30.437Z,22.23
2022-10-29T14:30:15.337Z,22.22
2022-10-29T14:32:45.256Z,22.22
2022-10-29T14:35:15.876Z,22.22
2022-10-29T14:37:43.660Z,22.23
2022-10-29T14:40:17.740Z,22.22
2022-10-29T14:42:46.100Z,22.26
2022-10-29T14:45:19.396Z,22.25
2022-10-29T14:47:49.691Z,22.24
2022-10-29T14:50:19.480Z,22.25
2022-10-29T14:52:53.258Z,22.24
2022-10-29T14:55:22.406Z,22.26
2022-10-29T14:57:50.802Z,22.26
2022-10-29T15:00:24.860Z,22.25
2022-10-29T15:02:52.342Z,22.24
2022-10-29T15:05:24.848Z,22.21
2022-10-29T15:07:52.264Z,22.21
2022-10-29T15:10:22.077Z,22.18
2022-10-29T15:12:49.941Z,22.18
2022-10-29T15:15:26.412Z,22.18
2022-10-29T15:17:56.580Z,22.16
2022-10-29T15:20:25.342Z,22.18
2022-10-29T15:22:53.913Z,22.17
2022-10-29T15:25:23.880Z,22.15
2022-10-29T15:27:51.287Z,22.15
2022-10-29T15:30:19.556Z,22.15
2022-10-29T15:32:48.285Z,22.15
2022-10-29T15:35:19.720Z,22.19
2022-10-29T15:37:47.214Z,22.19
2022-10-29T15:40:15.546Z,22.18
2022-10-29T15:42:42.989Z,22.17
2022-10-29T15:45:21.500Z,22.15
2022-10-29T15:47:50.739Z,22.17
2022-10-29T15:50:19.400Z,22.15
2022-10-29T15:52:48.748Z,22.15
2022-10-29T15:55:26.006Z,22.15
2022-10-29T15:57:54.596Z,22.13
2022-10-29T16:00:23.748Z,22.13
2022-10-29T16:02:52.449Z,22.15
2022-10-29T16:05:19.882Z,22.12
2022-10-29T16:07:47.785Z,22.14
2022-10-29T16:10:16.861Z,22.16
2022-10-29T16:12:44.347Z,22.12
2022-10-29T16:15:18.782Z,22.12
2022-10-29T16:17:46.500Z,22.12
2022-10-29T16:20:16.399Z,22.12
2022-10-29T16:22:43.812Z,22.12
2022-10-29T16:25:20.837Z,22.09
2022-10-29T16:27:48.247Z,22.08
2022-10-29T16:30:15.879Z,22.10
2022-10-29T16:32:43.378Z,22.08
2022-10-29T16:35:17.328Z,22.05
2022-10-29T16:37:44.740Z,22.09
2022-10-29T16:40:12.763Z,22.10
2022-10-29T16:42:40.250Z,22.09
2022-10-29T16:45:10.031Z,22.06
2022-10-29T16:47:37.461Z,22.08
2022-10-29T16:50:05.227Z,22.07
2022-10-29T16:52:33.941Z,22.06
2022-10-29T16:55:01.362Z,22.06
2022-10-29T16:57:29.392Z,22.05
2022-10-29T16:59:56.797Z,22.04
2022-10-29T17:02:24.255Z,22.03
2022-10-29T17:04:51.676Z,22.05
2022-10-29T17:07:19.113Z,22.05
2022-10-29T17:09:47.805Z,22.03
2022-10-29T17:12:15.229Z,22.03
2022-10-29T17:14:42.664Z,22.07
2022-10-29T17:17:10.062Z,22.05
2022-10-29T17:19:37.477Z,22.04
2022-10-29T17:22:05.661Z,22.04
2022-10-29T17:24:33.557Z,22.06
2022-10-29T17:27:05.237Z,22.02
2022-10-29T17:29:36.594Z,22.02
2022-10-29T17:34:36.619Z,22.05
2022-10-29T17:37:04.049Z,22.02
2022-10-29T17:39:31.494Z,22.03
2022-10-29T17:41:58.955Z,22.05
2022-10-29T17:44:27.661Z,22.03
2022-10-29T17:46:55.129Z,22.03
2022-10-29T17:49:22.538Z,22.02
2022-10-29T17:51:49.944Z,22.03
2022-10-29T17:54:17.460Z,22.03
2022-10-29T17:56:44.915Z,22.02
2022-10-29T17:59:12.364Z,22.09
2022-10-29T18:01:41.132Z,22.07
2022-10-29T18:04:08.592Z,22.04
2022-10-29T18:06:35.974Z,22.06
2022-10-29T18:09:03.408Z,22.05
2022-10-29T18:11:30.825Z,22.05
2022-10-29T18:13:58.455Z,22.05
2022-10-29T18:16:26.619Z,22.04
2022-10-29T18:19:02.095Z,22.01
2022-10-29T18:21:30.445Z,22.02
2022-10-29T18:23:58.042Z,22.01
2022-10-29T18:26:26.540Z,22.04
2022-10-29T18:28:54.030Z,22.01
2022-10-29T18:31:21.616Z,22.04
2022-10-29T18:33:49.046Z,22.02
2022-10-29T18:36:17.811Z,22.01
2022-10-29T18:38:45.210Z,22.03
2022-10-29T18:41:12.620Z,22.02
2022-10-29T18:43:40.029Z,22.02
2022-10-29T18:46:07.463Z,22.03
2022-10-29T18:48:37.370Z,22.03
2022-10-29T18:51:08.038Z,22.04
2022-10-29T18:53:37.040Z,22.03
2022-10-29T18:56:04.967Z,22.03
2022-10-29T18:58:32.990Z,22.03
2022-10-29T19:01:06.265Z,22.08
2022-10-29T19:03:33.707Z,22.03
2022-10-29T19:06:02.444Z,22.01
2022-10-29T19:08:29.868Z,21.99
2022-10-29T19:11:02.449Z,22.00
2022-10-29T19:13:30.089Z,22.04
2022-10-29T19:16:01.286Z,22.04
2022-10-29T19:18:28.936Z,22.02
2022-10-29T19:20:56.381Z,22.00
2022-10-29T19:23:28.363Z,21.97
2022-10-29T19:25:55.771Z,21.97
2022-10-29T19:28:24.588Z,21.96
2022-10-29T19:30:52.005Z,21.95
2022-10-29T19:33:19.419Z,21.96
2022-10-29T19:35:46.808Z,21.94
2022-10-29T19:38:14.222Z,21.95
2022-10-29T19:40:42.111Z,21.96
2022-10-29T19:43:09.511Z,21.96
2022-10-29T19:45:40.216Z,21.99
2022-10-29T19:48:08.061Z,21.99
2022-10-29T19:50:35.502Z,21.97
2022-10-29T19:53:02.936Z,21.97
2022-10-29T19:55:30.530Z,21.99
2022-10-29T19:57:57.963Z,22.01
2022-10-29T20:00:25.369Z,22.01
2022-10-29T20:02:54.236Z,21.98
2022-10-29T20:05:21.864Z,21.97
2022-10-29T20:07:50.183Z,21.98
2022-10-29T20:10:17.817Z,22.00
2022-10-29T20:12:45.277Z,21.99
2022-10-29T20:15:12.847Z,21.98
2022-10-29T20:17:40.272Z,21.98
2022-10-29T20:20:15.780Z,21.98
2022-10-29T20:22:46.151Z,21.99
2022-10-29T20:25:15.202Z,21.99
2022-10-29T20:27:42.729Z,21.97
2022-10-29T20:30:11.113Z,21.96
2022-10-29T20:32:38.546Z,21.96
2022-10-29T20:35:06.650Z,21.99
2022-10-29T20:37:35.355Z,21.97
2022-10-29T20:40:02.771Z,22.00
2022-10-29T20:42:30.372Z,22.01
2022-10-29T20:44:57.771Z,22.04
2022-10-29T20:47:25.181Z,22.01
2022-10-29T20:49:52.567Z,22.00
2022-10-29T20:52:19.960Z,22.00
2022-10-29T20:54:48.648Z,21.99
2022-10-29T20:57:16.035Z,21.96
2022-10-29T20:59:43.435Z,21.96
2022-10-29T21:02:11.437Z,21.97
2022-10-29T21:04:39.178Z,21.96
2022-10-29T21:07:07.693Z,21.97
2022-10-29T21:09:35.144Z,21.95
2022-10-29T21:12:03.970Z,21.96
2022-10-29T21:14:31.381Z,21.94
2022-10-29T21:16:58.783Z,21.89
2022-10-29T21:19:28.084Z,21.87
2022-10-29T21:21:55.498Z,21.85
2022-10-29T21:24:22.996Z,21.86
2022-10-29T21:26:50.396Z,21.82
2022-10-29T21:29:19.092Z,21.82
2022-10-29T21:31:48.776Z,21.79
2022-10-29T21:34:16.193Z,21.79
2022-10-29T21:36:43.593Z,21.80
2022-10-29T21:39:11.011Z,21.78
2022-10-29T21:41:38.412Z,21.75
2022-10-29T21:44:08.553Z,21.76
2022-10-29T21:46:37.237Z,21.75
2022-10-29T21:49:04.640Z,21.75
2022-10-29T21:51:32.027Z,21.73
2022-10-29T21:53:59.444Z,21.72
2022-10-29T21:56:26.831Z,21.69
2022-10-29T21:58:54.334Z,21.71
2022-10-29T22:01:21.927Z,21.70
2022-10-29T22:03:50.720Z,21.70
2022-10-29T22:06:18.745Z,21.72
2022-10-29T22:08:46.196Z,21.77
2022-10-29T22:11:13.803Z,21.78
2022-10-29T22:13:41.225Z,21.79
2022-10-29T22:16:09.165Z,21.79
2022-10-29T22:18:36.618Z,21.79
2022-10-29T22:21:06.880Z,21.80
2022-10-29T22:23:34.289Z,21.82
2022-10-29T22:26:01.703Z,21.82
2022-10-29T22:28:29.112Z,21.82
2022-10-29T22:31:00.347Z,21.83
2022-10-29T22:33:27.876Z,21.83
2022-10-29T22:35:55.304Z,21.84
2022-10-29T22:38:24.023Z,21.84
2022-10-29T22:40:51.447Z,21.81
2022-10-29T22:43:18.863Z,21.81
2022-10-29T22:45:46.425Z,21.81
2022-10-29T22:48:13.857Z,21.82
2022-10-29T22:50:41.328Z,21.83
2022-10-29T22:53:08.725Z,21.83
2022-10-29T22:55:37.460Z,21.84
2022-10-29T22:58:04.861Z,21.85
2022-10-29T23:00:32.269Z,21.89
2022-10-29T23:02:59.955Z,21.86
2022-10-29T23:05:27.576Z,21.85
2022-10-29T23:07:55.187Z,21.85
2022-10-29T23:10:22.790Z,21.85
2022-10-29T23:12:51.480Z,21.86
2022-10-29T23:15:18.889Z,21.85
2022-10-29T23:17:46.299Z,21.85
2022-10-29T23:20:13.697Z,21.82
2022-10-29T23:22:41.100Z,21.84
2022-10-29T23:25:09.331Z,21.85
2022-10-29T23:27:36.744Z,21.84
2022-10-29T23:32:33.173Z,21.87
2022-10-29T23:35:00.566Z,21.86
2022-10-29T23:37:28.927Z,21.87
2022-10-29T23:39:56.327Z,21.88
2022-10-29T23:42:23.793Z,21.88
2022-10-29T23:44:51.190Z,21.87
2022-10-29T23:47:19.921Z,21.88
2022-10-29T23:49:47.312Z,21.88
2022-10-29T23:52:14.712Z,21.86
2022-10-29T23:54:42.101Z,21.89
2022-10-29T23:57:09.499Z,21.89
2022-10-29T23:59:36.883Z,21.89
